Time;durP1;ratioP1;P1;durP2;ratioP2;P2;SDS_P1;SDS_P2;PMS_P1;PMS_P2;Temp;Humidity;BMP_temperature;BMP_pressure;BME280_temperature;BME280_humidity;BME280_pressure;Samples;Min_cycle;Max_cycle;Signal;HPM_P1;HPM_P2
2022/04/17 00:00:41;;;;;;;;;;;6.00;95.70;;;;;;5002315;28;19921;-71
2022/04/17 00:03:07;;;;;;;;;;;6.00;95.70;;;;;;5002607;28;19932;-71
2022/04/17 00:05:33;;;;;;;;;;;5.90;95.70;;;;;;5002330;28;19910;-72
2022/04/17 00:07:58;;;;;;;;;;;5.90;95.80;;;;;;5028687;23;20068;-76
2022/04/17 00:10:24;;;;;;;;;;;5.90;95.80;;;;;;5018909;28;20004;-76
2022/04/17 00:12:49;;;;;;;;;;;5.90;95.80;;;;;;5021116;28;20017;-76
2022/04/17 00:15:14;;;;;;;;;;;5.80;95.90;;;;;;5020504;28;20059;-77
2022/04/17 00:17:43;;;;;;;;;;;5.80;96.00;;;;;;5020571;28;19913;-76
2022/04/17 00:20:13;;;;;;;;;;;5.80;96.00;;;;;;5020732;28;20405;-76
2022/04/17 00:22:38;;;;;;;;;;;5.80;96.10;;;;;;5020898;28;19913;-76
2022/04/17 00:25:04;;;;;;;;;;;5.80;96.00;;;;;;5020795;28;19913;-76
2022/04/17 00:27:29;;;;;;;;;;;5.70;95.80;;;;;;5020716;28;19909;-76
2022/04/17 00:29:55;;;;;;;;;;;5.70;95.80;;;;;;5020690;28;19913;-76
2022/04/17 00:32:20;;;;;;;;;;;5.70;95.90;;;;;;5020523;28;20004;-76
2022/04/17 00:34:45;;;;;;;;;;;5.60;95.80;;;;;;5020862;28;19915;-76
2022/04/17 00:37:11;;;;;;;;;;;5.60;95.70;;;;;;5020443;28;19947;-76
2022/04/17 00:39:36;;;;;;;;;;;5.60;95.60;;;;;;5020972;28;20388;-76
2022/04/17 00:42:05;;;;;;;;;;;5.50;95.60;;;;;;5020277;28;19940;-76
2022/04/17 00:44:30;;;;;;;;;;;5.50;95.50;;;;;;5020617;28;19909;-76
2022/04/17 00:46:56;;;;;;;;;;;5.50;95.60;;;;;;5020434;28;20008;-76
2022/04/17 00:49:22;;;;;;;;;;;5.50;95.70;;;;;;5020134;28;19917;-76
2022/04/17 00:51:47;;;;;;;;;;;5.40;95.70;;;;;;5020358;28;19924;-76
2022/04/17 00:54:14;;;;;;;;;;;5.50;95.90;;;;;;5020067;28;19963;-76
2022/04/17 00:56:40;;;;;;;;;;;5.40;95.60;;;;;;5020142;28;19914;-76
2022/04/17 00:59:06;;;;;;;;;;;5.50;95.50;;;;;;5020276;28;19909;-76
2022/04/17 01:01:34;;;;;;;;;;;5.40;95.60;;;;;;5020122;28;19913;-76
2022/04/17 01:03:59;;;;;;;;;;;5.40;95.60;;;;;;5019999;28;19920;-76
2022/04/17 01:06:28;;;;;;;;;;;5.30;95.70;;;;;;5019848;28;19918;-76
2022/04/17 01:08:54;;;;;;;;;;;5.30;95.90;;;;;;5019717;28;20267;-76
2022/04/17 01:11:20;;;;;;;;;;;5.30;96.00;;;;;;5019704;28;19962;-76
2022/04/17 01:13:45;;;;;;;;;;;5.20;96.10;;;;;;5019680;28;19924;-76
2022/04/17 01:16:11;;;;;;;;;;;5.20;96.30;;;;;;5020051;28;19909;-75
2022/04/17 01:18:56;;;;;;;;;;;5.20;96.30;;;;;;5019988;28;19913;-76
2022/04/17 01:21:24;;;;;;;;;;;5.10;96.40;;;;;;5019323;28;19996;-76
2022/04/17 01:29:18;;;;;;;;;;;5.00;97.50;;;;;;5019105;28;19923;-76
2022/04/17 01:31:44;;;;;;;;;;;4.90;97.60;;;;;;5019595;28;20004;-76
2022/04/17 01:34:10;;;;;;;;;;;4.90;97.60;;;;;;5019097;28;19909;-76
2022/04/17 01:36:35;;;;;;;;;;;4.90;97.70;;;;;;5019855;28;19946;-75
2022/04/17 01:39:00;;;;;;;;;;;4.90;97.20;;;;;;5019379;28;19909;-76
2022/04/17 01:41:26;;;;;;;;;;;4.90;97.20;;;;;;5019321;28;19914;-76
2022/04/17 01:43:51;;;;;;;;;;;4.90;97.20;;;;;;5019710;28;19909;-76
2022/04/17 01:46:17;;;;;;;;;;;4.90;97.20;;;;;;5019459;28;19913;-76
2022/04/17 01:48:42;;;;;;;;;;;4.80;97.30;;;;;;5019729;28;20289;-76
2022/04/17 01:51:08;;;;;;;;;;;4.80;97.40;;;;;;5019272;28;20369;-76
2022/04/17 01:53:33;;;;;;;;;;;4.80;97.20;;;;;;5019500;28;19920;-76
2022/04/17 01:55:59;;;;;;;;;;;4.80;97.00;;;;;;5020125;28;19913;-75
2022/04/17 01:58:24;;;;;;;;;;;4.80;96.80;;;;;;5019280;28;19909;-76
2022/04/17 02:00:50;;;;;;;;;;;4.80;96.80;;;;;;5018980;28;19910;-76
2022/04/17 02:03:15;;;;;;;;;;;4.90;96.90;;;;;;5018900;28;19999;-76
2022/04/17 02:05:41;;;;;;;;;;;4.90;96.90;;;;;;5019593;28;19914;-76
2022/04/17 02:08:06;;;;;;;;;;;4.80;96.90;;;;;;5019293;28;20008;-76
2022/04/17 02:10:32;;;;;;;;;;;4.80;97.10;;;;;;5019337;28;20015;-76
2022/04/17 02:13:00;;;;;;;;;;;4.70;97.00;;;;;;5019041;28;19963;-76
2022/04/17 02:15:26;;;;;;;;;;;4.70;97.00;;;;;;5018889;28;19916;-76
2022/04/17 02:17:51;;;;;;;;;;;4.70;97.10;;;;;;5019557;28;19910;-76
2022/04/17 02:20:16;;;;;;;;;;;4.60;97.10;;;;;;5019056;28;19932;-76
2022/04/17 02:22:42;;;;;;;;;;;4.60;97.20;;;;;;5018728;28;19916;-76
2022/04/17 02:25:07;;;;;;;;;;;4.60;97.20;;;;;;5018905;28;20321;-76
2022/04/17 02:27:33;;;;;;;;;;;4.60;97.20;;;;;;5018880;28;20396;-76
2022/04/17 02:29:58;;;;;;;;;;;4.50;97.30;;;;;;5019123;28;19921;-76
2022/04/17 02:32:24;;;;;;;;;;;4.50;97.30;;;;;;5018946;28;19917;-76
2022/04/17 02:34:49;;;;;;;;;;;4.50;97.30;;;;;;5019195;28;19992;-76
2022/04/17 02:37:15;;;;;;;;;;;4.40;97.30;;;;;;5018616;28;19909;-76
2022/04/17 02:39:40;;;;;;;;;;;4.40;97.60;;;;;;5021026;28;20381;-76
2022/04/17 02:42:05;;;;;;;;;;;4.40;97.60;;;;;;5023016;28;19943;-76
2022/04/17 02:44:31;;;;;;;;;;;4.40;97.60;;;;;;5022503;28;19909;-76
2022/04/17 02:49:40;;;;;;;;;;;4.30;97.50;;;;;;5022498;28;20069;-76
2022/04/17 02:52:06;;;;;;;;;;;4.30;97.60;;;;;;5022435;28;20024;-76
2022/04/17 02:54:31;;;;;;;;;;;4.30;97.60;;;;;;5022533;28;19909;-76
2022/04/17 02:56:57;;;;;;;;;;;4.20;97.70;;;;;;5022504;28;19914;-76
2022/04/17 02:59:22;;;;;;;;;;;4.20;97.60;;;;;;5022204;28;19932;-76
2022/04/17 03:07:16;;;;;;;;;;;4.20;97.50;;;;;;5022598;28;19928;-76
2022/04/17 03:09:41;;;;;;;;;;;4.20;97.50;;;;;;5021769;28;19910;-76
2022/04/17 03:12:07;;;;;;;;;;;4.10;97.50;;;;;;5022163;28;19917;-76
2022/04/17 03:14:32;;;;;;;;;;;4.00;97.40;;;;;;5022291;28;20395;-76
2022/04/17 03:16:57;;;;;;;;;;;4.00;97.50;;;;;;5022284;28;19967;-76
2022/04/17 03:19:23;;;;;;;;;;;4.00;97.50;;;;;;5022217;28;19955;-76
2022/04/17 03:21:48;;;;;;;;;;;3.90;97.40;;;;;;5022155;28;20382;-76
2022/04/17 03:24:15;;;;;;;;;;;3.90;97.60;;;;;;5021811;28;19932;-76
2022/04/17 03:26:41;;;;;;;;;;;3.80;97.60;;;;;;5022375;28;19960;-76
2022/04/17 03:29:06;;;;;;;;;;;3.80;97.90;;;;;;5021340;28;20317;-76
2022/04/17 03:31:32;;;;;;;;;;;3.80;97.70;;;;;;5021978;28;19914;-76
2022/04/17 03:33:57;;;;;;;;;;;3.70;97.80;;;;;;5021971;28;19920;-76
2022/04/17 03:36:22;;;;;;;;;;;3.70;97.80;;;;;;5021561;28;19913;-76
2022/04/17 03:38:48;;;;;;;;;;;3.70;97.90;;;;;;5021981;28;19948;-76
2022/04/17 03:41:13;;;;;;;;;;;3.70;97.90;;;;;;5021475;28;19914;-76
2022/04/17 03:43:39;;;;;;;;;;;3.70;97.90;;;;;;5021772;28;19932;-76
2022/04/17 03:46:04;;;;;;;;;;;3.60;98.00;;;;;;5021174;28;20267;-76
2022/04/17 03:48:30;;;;;;;;;;;3.50;98.10;;;;;;5021909;28;19917;-76
2022/04/17 03:50:56;;;;;;;;;;;3.50;98.20;;;;;;5020547;28;19909;-75
2022/04/17 03:53:21;;;;;;;;;;;3.40;98.20;;;;;;5021291;28;19928;-76
2022/04/17 03:55:47;;;;;;;;;;;3.30;98.40;;;;;;5020889;28;19910;-75
2022/04/17 03:58:12;;;;;;;;;;;3.30;98.60;;;;;;5021173;28;19920;-75
2022/04/17 04:00:38;;;;;;;;;;;3.20;98.70;;;;;;5021478;28;19949;-75
2022/04/17 04:03:03;;;;;;;;;;;3.20;98.70;;;;;;5021072;28;19921;-75
2022/04/17 04:05:29;;;;;;;;;;;3.20;98.70;;;;;;5021216;28;19964;-75
2022/04/17 04:07:54;;;;;;;;;;;3.10;98.70;;;;;;5021485;28;19921;-76
2022/04/17 04:10:20;;;;;;;;;;;3.10;98.80;;;;;;5020970;28;19918;-75
2022/04/17 04:12:45;;;;;;;;;;;3.10;98.80;;;;;;5021082;28;19917;-75
2022/04/17 04:15:11;;;;;;;;;;;3.10;98.90;;;;;;5020953;28;19913;-75
2022/04/17 04:17:36;;;;;;;;;;;3.00;99.00;;;;;;5020525;28;20051;-76
2022/04/17 04:20:03;;;;;;;;;;;3.00;99.10;;;;;;5020958;28;20020;-75
2022/04/17 04:22:28;;;;;;;;;;;3.10;99.10;;;;;;5020682;28;19909;-75
2022/04/17 04:24:53;;;;;;;;;;;3.10;99.10;;;;;;5021051;28;19909;-75
2022/04/17 04:30:03;;;;;;;;;;;3.30;99.20;;;;;;5021101;28;20010;-75
2022/04/17 04:32:29;;;;;;;;;;;3.40;99.20;;;;;;5020521;28;20373;-75
2022/04/17 04:35:00;;;;;;;;;;;3.50;99.10;;;;;;5020745;28;19913;-75
2022/04/17 04:37:26;;;;;;;;;;;3.60;99.10;;;;;;5020609;28;20032;-76
2022/04/17 04:39:51;;;;;;;;;;;3.60;98.90;;;;;;5020707;28;19992;-75
2022/04/17 04:42:17;;;;;;;;;;;4.00;98.80;;;;;;5020603;28;19920;-75
2022/04/17 04:44:43;;;;;;;;;;;4.50;98.60;;;;;;5020539;28;19910;-75
2022/04/17 04:47:08;;;;;;;;;;;5.10;98.10;;;;;;5020399;28;19941;-76
2022/04/17 04:49:34;;;;;;;;;;;5.70;97.60;;;;;;5020611;28;20359;-76
2022/04/17 04:52:03;;;;;;;;;;;6.40;97.10;;;;;;5020387;28;21856;-75
2022/04/17 04:54:29;;;;;;;;;;;6.90;96.50;;;;;;5019919;28;19909;-76
2022/04/17 04:56:54;;;;;;;;;;;7.40;95.20;;;;;;5020283;28;19920;-76
2022/04/17 04:59:20;;;;;;;;;;;7.70;93.60;;;;;;5020009;28;19909;-76
2022/04/17 05:01:47;;;;;;;;;;;7.90;92.40;;;;;;5020147;28;19968;-76
2022/04/17 05:04:13;;;;;;;;;;;8.10;90.70;;;;;;5020437;28;19953;-76
2022/04/17 05:06:38;;;;;;;;;;;8.20;90.10;;;;;;5019913;28;19960;-76
2022/04/17 05:09:04;;;;;;;;;;;8.30;89.00;;;;;;5020150;28;19913;-76
2022/04/17 05:11:31;;;;;;;;;;;8.40;88.60;;;;;;5019444;28;20297;-76
2022/04/17 05:13:57;;;;;;;;;;;8.40;87.50;;;;;;5019984;28;19913;-76
2022/04/17 05:16:22;;;;;;;;;;;8.40;84.80;;;;;;5019738;28;20009;-76
2022/04/17 05:18:52;;;;;;;;;;;8.50;82.00;;;;;;5020341;28;19916;-76
2022/04/17 05:21:20;;;;;;;;;;;8.60;81.80;;;;;;5019647;28;19910;-76
2022/04/17 05:23:45;;;;;;;;;;;8.70;78.50;;;;;;5019760;28;20401;-76
2022/04/17 05:26:10;;;;;;;;;;;8.90;76.00;;;;;;5019746;28;19953;-76
2022/04/17 05:28:36;;;;;;;;;;;8.90;75.50;;;;;;5019940;28;19945;-76
2022/04/17 05:31:01;;;;;;;;;;;8.60;77.30;;;;;;5019743;28;20044;-76
2022/04/17 05:33:27;;;;;;;;;;;8.10;77.40;;;;;;5019793;28;19913;-76
2022/04/17 05:35:52;;;;;;;;;;;7.50;80.00;;;;;;5019346;28;19909;-76
2022/04/17 05:38:20;;;;;;;;;;;7.10;82.70;;;;;;5019456;28;19956;-76
2022/04/17 05:40:49;;;;;;;;;;;6.80;85.30;;;;;;5019446;28;19913;-76
2022/04/17 05:43:15;;;;;;;;;;;6.70;88.10;;;;;;5019023;28;19959;-76
2022/04/17 05:45:41;;;;;;;;;;;6.70;89.40;;;;;;5019512;28;20008;-76
2022/04/17 05:48:07;;;;;;;;;;;6.80;89.80;;;;;;5019754;28;19950;-76
2022/04/17 05:50:33;;;;;;;;;;;6.80;90.10;;;;;;5019407;28;20249;-76
2022/04/17 05:52:59;;;;;;;;;;;6.70;88.30;;;;;;5019295;28;20286;-76
2022/04/17 05:55:25;;;;;;;;;;;6.70;88.60;;;;;;5019188;28;20286;-76
2022/04/17 05:57:50;;;;;;;;;;;6.60;89.20;;;;;;5019334;28;19910;-76
2022/04/17 06:00:16;;;;;;;;;;;6.70;90.00;;;;;;5019661;28;19920;-76
2022/04/17 06:02:46;;;;;;;;;;;6.80;90.30;;;;;;5019049;28;19916;-76
2022/04/17 06:05:12;;;;;;;;;;;6.80;89.40;;;;;;5019553;28;20301;-76
2022/04/17 06:07:38;;;;;;;;;;;6.80;88.40;;;;;;5019141;28;20485;-76
2022/04/17 06:10:06;;;;;;;;;;;6.80;88.40;;;;;;5019388;28;19913;-76
2022/04/17 06:12:32;;;;;;;;;;;6.90;90.10;;;;;;5018406;28;20397;-76
2022/04/17 06:14:57;;;;;;;;;;;7.00;90.80;;;;;;5020699;28;19914;-77
2022/04/17 06:17:23;;;;;;;;;;;7.10;88.50;;;;;;5023184;28;19913;-77
2022/04/17 06:19:48;;;;;;;;;;;7.20;88.90;;;;;;5023517;28;19920;-77
2022/04/17 06:22:14;;;;;;;;;;;7.20;85.50;;;;;;5022984;28;19913;-77
2022/04/17 06:24:39;;;;;;;;;;;7.20;86.50;;;;;;5023409;28;19909;-77
2022/04/17 06:27:05;;;;;;;;;;;7.20;87.60;;;;;;5022965;28;19913;-77
2022/04/17 06:29:30;;;;;;;;;;;7.20;88.20;;;;;;5023252;28;19944;-77
2022/04/17 06:31:56;;;;;;;;;;;7.30;87.10;;;;;;5023068;28;19997;-77
2022/04/17 06:34:21;;;;;;;;;;;7.40;85.10;;;;;;5022792;28;19940;-77
2022/04/17 06:36:47;;;;;;;;;;;7.50;83.10;;;;;;5023083;28;20433;-77
2022/04/17 06:39:12;;;;;;;;;;;7.50;83.90;;;;;;5022779;28;19909;-77
2022/04/17 06:41:38;;;;;;;;;;;7.60;82.20;;;;;;5022664;28;20131;-77
2022/04/17 06:44:03;;;;;;;;;;;7.60;84.90;;;;;;5022780;28;19909;-77
2022/04/17 06:46:29;;;;;;;;;;;7.80;83.20;;;;;;5023089;28;19916;-77
2022/04/17 06:48:54;;;;;;;;;;;7.90;80.90;;;;;;5022955;28;20418;-77
2022/04/17 06:51:24;;;;;;;;;;;8.00;80.00;;;;;;5022668;28;20325;-77
2022/04/17 06:53:50;;;;;;;;;;;8.00;81.20;;;;;;5022594;28;19921;-77
2022/04/17 06:56:18;;;;;;;;;;;8.10;82.10;;;;;;5022481;28;19909;-77
2022/04/17 06:58:44;;;;;;;;;;;8.10;81.20;;;;;;5022517;28;19913;-77
2022/04/17 07:01:09;;;;;;;;;;;8.00;80.30;;;;;;5022436;28;19910;-77
2022/04/17 07:03:35;;;;;;;;;;;7.90;82.00;;;;;;5022546;28;19932;-77
2022/04/17 07:06:00;;;;;;;;;;;8.00;83.30;;;;;;5022348;28;20008;-77
2022/04/17 07:08:28;;;;;;;;;;;8.00;81.90;;;;;;5022428;28;19921;-77
2022/04/17 07:10:54;;;;;;;;;;;8.00;82.30;;;;;;5022810;28;19909;-77
2022/04/17 07:13:19;;;;;;;;;;;8.10;83.80;;;;;;5022233;28;19917;-77
2022/04/17 07:15:45;;;;;;;;;;;8.20;83.40;;;;;;5022355;28;19909;-77
2022/04/17 07:18:10;;;;;;;;;;;8.30;80.70;;;;;;5022013;28;19913;-76
2022/04/17 07:20:36;;;;;;;;;;;8.40;80.50;;;;;;5022291;28;19916;-76
2022/04/17 07:23:01;;;;;;;;;;;8.40;78.20;;;;;;5022063;28;19921;-77
2022/04/17 07:25:27;;;;;;;;;;;8.60;76.20;;;;;;5020907;28;19914;-77
2022/04/17 07:27:53;;;;;;;;;;;8.70;84.10;;;;;;5021710;28;19988;-77
2022/04/17 07:30:20;;;;;;;;;;;8.70;78.90;;;;;;5021831;28;19917;-77
2022/04/17 07:32:50;;;;;;;;;;;8.80;74.80;;;;;;5022041;28;19921;-77
2022/04/17 07:35:17;;;;;;;;;;;8.90;75.10;;;;;;5021478;28;20310;-77
2022/04/17 07:37:53;;;;;;;;;;;8.90;72.00;;;;;;5021989;28;19913;-77
2022/04/17 07:40:21;;;;;;;;;;;9.00;74.10;;;;;;5021535;28;19913;-77
2022/04/17 07:42:47;;;;;;;;;;;9.00;69.50;;;;;;5021678;28;20008;-77
2022/04/17 07:45:13;;;;;;;;;;;9.10;70.10;;;;;;5021964;28;19913;-77
2022/04/17 07:47:39;;;;;;;;;;;9.30;71.10;;;;;;5021714;28;20377;-77
2022/04/17 07:50:07;;;;;;;;;;;9.40;70.40;;;;;;5021720;28;19910;-76
2022/04/17 07:52:35;;;;;;;;;;;9.50;69.60;;;;;;5021469;28;20015;-77
2022/04/17 07:55:01;;;;;;;;;;;9.70;66.60;;;;;;5021233;28;19913;-77
2022/04/17 07:57:26;;;;;;;;;;;9.80;68.40;;;;;;5021078;28;20381;-77
2022/04/17 07:59:55;;;;;;;;;;;9.80;67.00;;;;;;5021633;28;19913;-77
2022/04/17 08:02:22;;;;;;;;;;;9.90;65.60;;;;;;5021126;28;19909;-77
2022/04/17 08:04:51;;;;;;;;;;;9.80;62.60;;;;;;5021623;28;20263;-77
2022/04/17 08:07:20;;;;;;;;;;;9.90;61.60;;;;;;5020865;28;19921;-77
2022/04/17 08:09:45;;;;;;;;;;;9.90;62.00;;;;;;5020832;28;20409;-77
2022/04/17 08:12:11;;;;;;;;;;;10.00;60.20;;;;;;5021112;28;19917;-77
2022/04/17 08:14:36;;;;;;;;;;;10.10;61.20;;;;;;5021396;28;20004;-77
2022/04/17 08:17:04;;;;;;;;;;;10.30;59.10;;;;;;5019861;28;21356;-77
2022/04/17 08:19:31;;;;;;;;;;;10.30;59.30;;;;;;5021156;28;19913;-77
2022/04/17 08:21:57;;;;;;;;;;;10.40;57.40;;;;;;5020834;28;19964;-77
2022/04/17 08:24:22;;;;;;;;;;;10.50;56.00;;;;;;5021163;28;19913;-77
2022/04/17 08:26:48;;;;;;;;;;;10.70;52.50;;;;;;5021010;28;20443;-77
2022/04/17 08:29:14;;;;;;;;;;;10.70;52.80;;;;;;5020399;28;20369;-77
2022/04/17 08:31:40;;;;;;;;;;;10.80;49.30;;;;;;5020882;28;19909;-77
2022/04/17 08:34:05;;;;;;;;;;;10.90;48.10;;;;;;5020733;28;20349;-77
2022/04/17 08:36:30;;;;;;;;;;;11.00;49.80;;;;;;5020697;28;19913;-77
2022/04/17 08:38:56;;;;;;;;;;;11.10;46.80;;;;;;5020599;28;19913;-77
2022/04/17 08:41:22;;;;;;;;;;;11.30;48.10;;;;;;5020260;28;20012;-77
2022/04/17 08:43:48;;;;;;;;;;;11.40;47.80;;;;;;5020336;28;20295;-77
2022/04/17 08:46:13;;;;;;;;;;;11.40;45.30;;;;;;5020322;28;19916;-77
2022/04/17 08:48:39;;;;;;;;;;;11.40;46.90;;;;;;5020656;28;19917;-77
2022/04/17 08:51:05;;;;;;;;;;;11.50;46.10;;;;;;5020315;28;20481;-77
2022/04/17 08:53:32;;;;;;;;;;;11.40;47.80;;;;;;5020111;28;20278;-77
2022/04/17 08:55:58;;;;;;;;;;;11.40;46.20;;;;;;5020026;28;19945;-77
2022/04/17 08:58:24;;;;;;;;;;;11.40;44.80;;;;;;5020455;28;19988;-77
2022/04/17 09:00:50;;;;;;;;;;;11.40;46.60;;;;;;5020465;28;20320;-77
2022/04/17 09:03:15;;;;;;;;;;;11.40;43.90;;;;;;5020073;28;19917;-77
2022/04/17 09:05:41;;;;;;;;;;;11.40;47.70;;;;;;5020399;28;19992;-77
2022/04/17 09:08:11;;;;;;;;;;;11.50;46.20;;;;;;5019577;28;20378;-77
2022/04/17 09:10:36;;;;;;;;;;;11.60;45.30;;;;;;5020303;28;20020;-77
2022/04/17 09:13:03;;;;;;;;;;;11.60;45.30;;;;;;5019878;28;20433;-77
2022/04/17 09:15:29;;;;;;;;;;;11.60;45.70;;;;;;5020055;28;20631;-77
2022/04/17 09:17:54;;;;;;;;;;;11.60;46.50;;;;;;5019833;28;19963;-77
2022/04/17 09:20:24;;;;;;;;;;;11.70;46.50;;;;;;5019668;28;19913;-77
2022/04/17 09:22:51;;;;;;;;;;;11.80;47.50;;;;;;5019905;28;19979;-77
2022/04/17 09:25:16;;;;;;;;;;;12.00;48.30;;;;;;5019302;28;19909;-77
2022/04/17 09:28:04;;;;;;;;;;;12.10;46.00;;;;;;5019778;28;19996;-77
2022/04/17 09:30:34;;;;;;;;;;;12.10;47.40;;;;;;5019648;28;19920;-77
2022/04/17 09:33:06;;;;;;;;;;;12.20;47.30;;;;;;5019311;28;20016;-77
2022/04/17 09:35:32;;;;;;;;;;;12.20;46.20;;;;;;5019494;28;19909;-77
2022/04/17 09:37:59;;;;;;;;;;;12.30;46.20;;;;;;5019587;28;19913;-77
2022/04/17 09:40:25;;;;;;;;;;;12.20;46.90;;;;;;5019480;28;19913;-77
2022/04/17 09:43:06;;;;;;;;;;;12.40;45.50;;;;;;5019416;28;19917;-77
2022/04/17 09:45:31;;;;;;;;;;;12.50;47.50;;;;;;5019594;28;20357;-78
2022/04/17 09:47:56;;;;;;;;;;;12.60;46.70;;;;;;5019413;28;19920;-78
2022/04/17 09:50:29;;;;;;;;;;;12.70;45.20;;;;;;5018950;28;19924;-78
2022/04/17 09:52:56;;;;;;;;;;;12.70;46.60;;;;;;5019415;28;19987;-78
2022/04/17 09:55:28;;;;;;;;;;;12.80;47.10;;;;;;5018891;28;20390;-78
2022/04/17 09:57:57;;;;;;;;;;;12.80;45.40;;;;;;5019905;28;19909;-78
2022/04/17 10:00:23;;;;;;;;;;;12.70;45.90;;;;;;5019774;28;20206;-77
2022/04/17 10:02:49;;;;;;;;;;;12.70;46.20;;;;;;5019392;28;20543;-78
2022/04/17 10:05:18;;;;;;;;;;;12.70;46.40;;;;;;5019254;28;20271;-78
2022/04/17 10:07:45;;;;;;;;;;;12.80;47.40;;;;;;5019048;28;19921;-78
2022/04/17 10:10:11;;;;;;;;;;;12.80;45.40;;;;;;5019447;28;19920;-78
2022/04/17 10:12:40;;;;;;;;;;;12.90;46.30;;;;;;5018945;28;19920;-78
2022/04/17 10:15:10;;;;;;;;;;;13.10;47.20;;;;;;5019299;28;19916;-77
2022/04/17 10:17:36;;;;;;;;;;;13.10;45.00;;;;;;5019314;28;19917;-78
2022/04/17 10:20:06;;;;;;;;;;;13.20;45.70;;;;;;5019041;28;19913;-78
2022/04/17 10:22:35;;;;;;;;;;;13.30;45.40;;;;;;5018670;28;19913;-78
2022/04/17 10:25:03;;;;;;;;;;;13.30;44.10;;;;;;5019347;28;19932;-78
2022/04/17 10:27:32;;;;;;;;;;;13.40;45.40;;;;;;5018839;28;20008;-78
2022/04/17 10:30:08;;;;;;;;;;;13.60;43.20;;;;;;5019347;28;19909;-78
2022/04/17 10:32:34;;;;;;;;;;;13.70;43.90;;;;;;5018964;28;19963;-78
2022/04/17 10:35:06;;;;;;;;;;;13.80;43.40;;;;;;5019158;28;20003;-78
2022/04/17 10:37:50;;;;;;;;;;;13.80;42.10;;;;;;5019123;28;20354;-78
2022/04/17 10:40:17;;;;;;;;;;;13.90;41.40;;;;;;5018757;28;19909;-78
2022/04/17 10:43:08;;;;;;;;;;;13.80;42.70;;;;;;5019022;28;20400;-78
2022/04/17 10:45:54;;;;;;;;;;;14.00;42.00;;;;;;5014087;28;20066;-78
2022/04/17 10:48:26;;;;;;;;;;;14.20;42.60;;;;;;5018508;28;19917;-78
2022/04/17 10:50:52;;;;;;;;;;;14.20;41.80;;;;;;5019158;28;19952;-78
2022/04/17 10:53:24;;;;;;;;;;;14.30;43.50;;;;;;5017893;28;19957;-78
2022/04/17 10:56:02;;;;;;;;;;;14.50;41.80;;;;;;5019020;28;19917;-78
2022/04/17 10:58:34;;;;;;;;;;;14.60;42.90;;;;;;5018735;28;19917;-78
2022/04/17 11:00:59;;;;;;;;;;;14.50;42.90;;;;;;5020522;28;19913;-78
2022/04/17 11:03:26;;;;;;;;;;;14.40;42.40;;;;;;5022362;28;19968;-78
2022/04/17 11:06:12;;;;;;;;;;;14.40;44.70;;;;;;5023000;28;19916;-78
2022/04/17 11:08:56;;;;;;;;;;;14.50;43.40;;;;;;5022681;28;19922;-78
2022/04/17 11:11:22;;;;;;;;;;;14.70;42.10;;;;;;5021966;28;19935;-78
2022/04/17 11:14:06;;;;;;;;;;;14.80;42.00;;;;;;5022790;28;19913;-78
2022/04/17 11:16:36;;;;;;;;;;;14.90;44.20;;;;;;5021843;28;19975;-78
2022/04/17 11:19:01;;;;;;;;;;;14.80;43.30;;;;;;5022255;28;19909;-78
2022/04/17 11:21:38;;;;;;;;;;;14.60;44.20;;;;;;5022042;28;19914;-78
2022/04/17 11:24:03;;;;;;;;;;;14.50;44.10;;;;;;5022082;28;19961;-78
2022/04/17 11:26:48;;;;;;;;;;;14.50;43.90;;;;;;5022226;28;19956;-78
2022/04/17 11:29:13;;;;;;;;;;;14.40;43.90;;;;;;5021718;28;19932;-78
2022/04/17 11:31:39;;;;;;;;;;;14.50;44.60;;;;;;5022299;28;20362;-78
2022/04/17 11:34:04;;;;;;;;;;;14.50;45.50;;;;;;5021919;28;20256;-78
2022/04/17 11:36:29;;;;;;;;;;;14.50;44.80;;;;;;5022166;28;20484;-78
2022/04/17 11:38:55;;;;;;;;;;;14.60;46.40;;;;;;5022110;28;19921;-78
2022/04/17 11:41:23;;;;;;;;;;;14.80;44.70;;;;;;5021646;28;19913;-78
2022/04/17 11:43:59;;;;;;;;;;;14.80;44.80;;;;;;5021758;28;19942;-78
2022/04/17 11:46:24;;;;;;;;;;;14.80;44.40;;;;;;5021083;28;19913;-78
2022/04/17 11:48:49;;;;;;;;;;;14.70;43.00;;;;;;5021748;28;19972;-78
2022/04/17 11:51:20;;;;;;;;;;;14.70;43.60;;;;;;5021458;28;19913;-78
2022/04/17 11:53:45;;;;;;;;;;;14.90;43.20;;;;;;5021364;28;19921;-78
2022/04/17 11:56:11;;;;;;;;;;;14.90;44.40;;;;;;5021262;28;19909;-78
2022/04/17 11:58:36;;;;;;;;;;;15.00;44.00;;;;;;5022056;28;20289;-78
2022/04/17 12:01:04;;;;;;;;;;;15.00;43.60;;;;;;5021649;28;20346;-78
2022/04/17 12:03:35;;;;;;;;;;;14.90;43.20;;;;;;5021600;28;20229;-78
2022/04/17 12:06:03;;;;;;;;;;;14.80;43.90;;;;;;5020968;28;19936;-78
2022/04/17 12:08:34;;;;;;;;;;;14.70;43.60;;;;;;5021516;28;19984;-78
2022/04/17 12:11:01;;;;;;;;;;;14.70;44.90;;;;;;5021597;28;19936;-78
2022/04/17 12:13:28;;;;;;;;;;;14.60;43.40;;;;;;5020218;28;19925;-78
2022/04/17 12:15:58;;;;;;;;;;;14.40;43.40;;;;;;5021169;28;20432;-78
2022/04/17 12:18:24;;;;;;;;;;;14.40;44.20;;;;;;5021000;28;19995;-78
2022/04/17 12:21:08;;;;;;;;;;;14.40;43.30;;;;;;5021137;28;20370;-78
2022/04/17 12:23:34;;;;;;;;;;;14.40;44.50;;;;;;5020649;28;19932;-78
2022/04/17 12:26:01;;;;;;;;;;;14.60;45.70;;;;;;5021020;28;19917;-78
2022/04/17 12:28:26;;;;;;;;;;;14.70;45.50;;;;;;5020775;28;19913;-78
2022/04/17 12:30:52;;;;;;;;;;;14.60;45.90;;;;;;5020472;28;19917;-78
2022/04/17 12:33:22;;;;;;;;;;;14.60;45.10;;;;;;5020673;28;19917;-78
2022/04/17 12:36:00;;;;;;;;;;;14.70;44.10;;;;;;5020784;28;20954;-78
2022/04/17 12:38:26;;;;;;;;;;;14.80;47.00;;;;;;5020692;28;19913;-78
2022/04/17 12:40:51;;;;;;;;;;;14.90;46.80;;;;;;5020618;28;19916;-78
2022/04/17 12:43:17;;;;;;;;;;;15.00;46.10;;;;;;5020464;28;19964;-78
2022/04/17 12:45:54;;;;;;;;;;;15.10;44.10;;;;;;5020689;28;20288;-79
2022/04/17 12:48:27;;;;;;;;;;;15.10;43.20;;;;;;5020342;28;19975;-78
2022/04/17 12:50:56;;;;;;;;;;;15.00;43.40;;;;;;5020655;28;19916;-78
2022/04/17 12:53:21;;;;;;;;;;;14.90;45.60;;;;;;5019938;28;19921;-78
2022/04/17 12:55:47;;;;;;;;;;;15.00;45.10;;;;;;5020434;28;19980;-78
2022/04/17 12:58:12;;;;;;;;;;;15.00;44.00;;;;;;5020322;28;19913;-79
2022/04/17 13:00:38;;;;;;;;;;;15.00;44.80;;;;;;5020335;28;20313;-78
2022/04/17 13:03:13;;;;;;;;;;;15.10;46.20;;;;;;5020354;28;19913;-78
2022/04/17 13:05:39;;;;;;;;;;;15.40;44.70;;;;;;5020228;28;19924;-78
2022/04/17 13:08:05;;;;;;;;;;;15.50;42.60;;;;;;5020100;28;20185;-78
2022/04/17 13:10:31;;;;;;;;;;;15.60;43.30;;;;;;5020048;28;20459;-79
2022/04/17 13:12:57;;;;;;;;;;;15.60;44.30;;;;;;5020352;28;19921;-78
2022/04/17 13:15:28;;;;;;;;;;;15.70;44.80;;;;;;5019953;28;20367;-78
2022/04/17 13:17:54;;;;;;;;;;;15.70;43.80;;;;;;5020092;28;19916;-78
2022/04/17 13:20:21;;;;;;;;;;;15.80;42.40;;;;;;5019818;28;19918;-79
2022/04/17 13:22:47;;;;;;;;;;;15.80;42.20;;;;;;5019642;28;19936;-79
2022/04/17 13:25:13;;;;;;;;;;;15.70;42.20;;;;;;5019721;28;19909;-79
2022/04/17 13:27:38;;;;;;;;;;;15.70;39.00;;;;;;5019980;28;19966;-79
2022/04/17 13:30:08;;;;;;;;;;;15.60;40.10;;;;;;5019800;28;20333;-79
2022/04/17 13:32:33;;;;;;;;;;;15.50;40.20;;;;;;5019467;28;19918;-79
2022/04/17 13:34:59;;;;;;;;;;;15.60;41.80;;;;;;5019910;28;19920;-79
2022/04/17 13:40:09;;;;;;;;;;;15.70;40.20;;;;;;5019339;28;19940;-79
2022/04/17 13:42:38;;;;;;;;;;;15.70;40.30;;;;;;5019431;28;19913;-79
2022/04/17 13:45:05;;;;;;;;;;;15.70;41.20;;;;;;5019302;28;19916;-79
2022/04/17 13:47:30;;;;;;;;;;;15.80;42.00;;;;;;5019284;28;19996;-79
2022/04/17 13:49:55;;;;;;;;;;;15.90;42.20;;;;;;5019736;28;20327;-79
2022/04/17 13:52:21;;;;;;;;;;;16.20;42.20;;;;;;5019189;28;20370;-79
2022/04/17 13:54:46;;;;;;;;;;;16.20;39.60;;;;;;5019489;28;20425;-79
2022/04/17 13:57:12;;;;;;;;;;;16.10;41.70;;;;;;5019168;28;20437;-79
2022/04/17 13:59:37;;;;;;;;;;;16.20;40.30;;;;;;5019947;28;19909;-79
2022/04/17 14:02:03;;;;;;;;;;;16.20;41.00;;;;;;5018911;28;19920;-79
2022/04/17 14:04:28;;;;;;;;;;;16.20;41.60;;;;;;5019413;28;20362;-79
2022/04/17 14:06:54;;;;;;;;;;;16.30;41.20;;;;;;5018916;28;20305;-79
2022/04/17 14:09:20;;;;;;;;;;;16.30;42.20;;;;;;5019000;28;19920;-79
2022/04/17 14:11:45;;;;;;;;;;;16.30;39.90;;;;;;5020113;28;20337;-79
2022/04/17 14:14:11;;;;;;;;;;;16.10;39.70;;;;;;5019241;28;20439;-79
2022/04/17 14:16:36;;;;;;;;;;;16.00;40.60;;;;;;5018825;28;19917;-79
2022/04/17 14:19:02;;;;;;;;;;;16.00;41.50;;;;;;5019389;28;19916;-79
2022/04/17 14:21:28;;;;;;;;;;;16.10;41.00;;;;;;5019092;28;19913;-79
2022/04/17 14:23:53;;;;;;;;;;;16.00;40.90;;;;;;5019391;28;19968;-79
2022/04/17 14:26:19;;;;;;;;;;;16.10;40.30;;;;;;5018369;28;19953;-79
2022/04/17 14:28:44;;;;;;;;;;;15.90;40.20;;;;;;5019224;28;19910;-79
2022/04/17 14:31:10;;;;;;;;;;;15.90;40.30;;;;;;5018484;28;19910;-79
2022/04/17 14:33:35;;;;;;;;;;;15.80;39.50;;;;;;5019213;28;19917;-79
2022/04/17 14:36:01;;;;;;;;;;;15.80;40.20;;;;;;5021226;28;19909;-79
2022/04/17 14:38:26;;;;;;;;;;;15.80;39.00;;;;;;5022920;28;19996;-79
2022/04/17 14:40:52;;;;;;;;;;;15.80;40.00;;;;;;5022966;28;20228;-79